Time;durP1;ratioP1;P1;durP2;ratioP2;P2;SDS_P1;SDS_P2;PMS_P1;PMS_P2;Temp;Humidity;BMP_temperature;BMP_pressure;BME280_temperature;BME280_humidity;BME280_pressure;Samples;Min_cycle;Max_cycle;Signal;HPM_P1;HPM_P2
2022/05/09 00:01:26;;;;;;;9.07;8.23;;;;;;;14.97;79.13;97404.47;4954543;28;20452;-69
2022/05/09 00:03:51;;;;;;;8.77;7.90;;;;;;;15.10;78.16;97408.66;4953133;28;20409;-68
2022/05/09 00:06:16;;;;;;;8.37;7.60;;;;;;;14.93;78.18;97411.28;4954607;28;20822;-68
2022/05/09 00:08:42;;;;;;;7.88;7.18;;;;;;;14.80;78.05;97403.66;4954202;28;20390;-70
2022/05/09 00:11:09;;;;;;;7.90;7.20;;;;;;;14.80;78.25;97409.75;4958470;28;20398;-68
2022/05/09 00:13:36;;;;;;;7.80;7.00;;;;;;;14.70;78.87;97401.66;4954085;29;20394;-68
2022/05/09 00:16:02;;;;;;;7.40;6.72;;;;;;;14.81;77.72;97403.44;4953843;29;20413;-68
2022/05/09 00:18:27;;;;;;;7.55;6.85;;;;;;;14.92;76.96;97405.19;4954582;29;20845;-68
2022/05/09 00:20:53;;;;;;;8.77;7.17;;;;;;;14.86;76.99;97397.44;4962581;28;20416;-68
2022/05/09 00:23:18;;;;;;;7.78;7.10;;;;;;;14.76;77.77;97398.06;4972134;28;20404;-67
2022/05/09 00:25:43;;;;;;;8.97;7.40;;;;;;;14.88;76.59;97392.69;4967077;28;20406;-67
2022/05/09 00:28:09;;;;;;;7.57;6.80;;;;;;;14.96;75.69;97394.97;4962867;28;20430;-69
2022/05/09 00:30:34;;;;;;;6.68;6.07;;;;;;;15.15;73.93;97387.63;4972482;28;20404;-68
2022/05/09 00:32:59;;;;;;;6.40;5.83;;;;;;;14.97;74.43;97389.44;4971945;28;20885;-68
2022/05/09 00:35:25;;;;;;;6.93;6.30;;;;;;;15.04;74.53;97389.28;4968251;28;20807;-68
2022/05/09 00:37:50;;;;;;;7.20;6.50;;;;;;;15.05;75.03;97392.72;4954124;28;20405;-68
2022/05/09 00:40:16;;;;;;;7.37;6.67;;;;;;;15.07;74.92;97394.09;4953965;28;20402;-68
2022/05/09 00:42:48;;;;;;;7.22;6.60;;;;;;;14.98;75.32;97385.78;4954025;28;20398;-68
2022/05/09 00:45:14;;;;;;;7.30;6.60;;;;;;;14.98;75.71;97392.88;4954662;28;20898;-69
2022/05/09 00:47:41;;;;;;;7.07;6.47;;;;;;;14.82;76.85;97391.03;4972497;28;20424;-68
2022/05/09 00:50:09;;;;;;;7.40;6.70;;;;;;;14.85;76.79;97393.19;4962534;28;20473;-68
2022/05/09 00:53:07;;;;;;;7.68;6.90;;;;;;;14.79;77.27;97394.13;4953816;28;20945;-68
2022/05/09 00:55:42;;;;;;;8.15;7.40;;;;;;;14.53;79.15;97398.97;4914562;28;20423;-70
2022/05/09 00:58:17;;;;;;;8.68;7.40;;;;;;;14.46;80.01;97397.50;4956098;28;20398;-68
2022/05/09 01:00:45;;;;;;;8.65;7.72;;;;;;;14.33;80.97;97398.56;4954662;28;20449;-68
2022/05/09 01:03:16;;;;;;;8.70;7.90;;;;;;;14.25;82.13;97398.13;4952215;28;20775;-69
2022/05/09 01:05:45;;;;;;;9.02;8.13;;;;;;;14.04;83.48;97399.59;4961208;28;20398;-67
2022/05/09 01:08:11;;;;;;;9.37;8.37;;;;;;;14.10;83.70;97401.25;4953515;28;20397;-68
2022/05/09 01:10:39;;;;;;;9.40;8.57;;;;;;;14.11;84.23;97400.22;4956571;28;20428;-67
2022/05/09 01:13:08;;;;;;;9.23;8.32;;;;;;;13.85;85.38;97400.75;4973112;28;20385;-68
2022/05/09 01:15:34;;;;;;;9.07;8.18;;;;;;;13.86;85.75;97394.44;4972249;28;20420;-68
2022/05/09 01:18:03;;;;;;;9.30;8.30;;;;;;;13.78;86.38;97400.06;4957832;28;20460;-68
2022/05/09 01:20:30;;;;;;;11.60;8.63;;;;;;;13.71;87.34;97401.00;4956600;28;20679;-68
2022/05/09 01:22:59;;;;;;;9.15;8.35;;;;;;;13.73;87.14;97400.75;4966423;28;20401;-68
2022/05/09 01:25:27;;;;;;;10.53;7.80;;;;;;;13.66;87.68;97398.25;4955378;28;20531;-68
2022/05/09 01:27:52;;;;;;;9.40;7.83;;;;;;;13.63;87.75;97397.91;4954820;28;20189;-68
2022/05/09 01:30:39;;;;;;;10.03;7.93;;;;;;;13.63;87.95;97390.81;4954815;28;20248;-68
2022/05/09 01:33:09;;;;;;;10.03;8.53;;;;;;;13.55;88.31;97398.25;4973555;28;20188;-68
2022/05/09 01:35:42;;;;;;;10.30;8.47;;;;;;;13.57;88.45;97396.19;4973238;28;20193;-68
2022/05/09 01:38:32;;;;;;;9.63;8.53;;;;;;;13.79;87.09;97396.41;4973710;28;20191;-68
2022/05/09 01:40:58;;;;;;;9.03;7.73;;;;;;;13.64;87.71;97395.06;4968803;28;20212;-68
2022/05/09 01:43:39;;;;;;;10.57;8.07;;;;;;;13.66;87.70;97398.25;4973325;28;20201;-68
2022/05/09 01:46:11;;;;;;;8.80;7.90;;;;;;;13.59;88.02;97397.59;4973445;28;20534;-68
2022/05/09 01:51:22;;;;;;;10.63;8.37;;;;;;;13.78;87.32;97400.06;4963288;28;20251;-68
2022/05/09 01:53:50;;;;;;;9.47;8.53;;;;;;;13.68;87.63;97398.81;4973610;28;20201;-68
2022/05/09 01:56:17;;;;;;;13.43;9.13;;;;;;;13.79;87.03;97391.94;4973019;28;20276;-70
2022/05/09 01:58:43;;;;;;;9.30;8.30;;;;;;;13.62;87.93;97396.31;4973296;28;20342;-68
2022/05/09 02:01:08;;;;;;;9.47;8.47;;;;;;;13.67;87.80;97396.41;4960440;28;20662;-68
2022/05/09 02:03:35;;;;;;;10.10;8.07;;;;;;;13.64;88.00;97396.88;4970244;28;20197;-68
2022/05/09 02:06:01;;;;;;;9.70;8.70;;;;;;;13.71;87.48;97403.63;4972924;28;20187;-68
2022/05/09 02:08:27;;;;;;;10.47;8.03;;;;;;;13.89;86.38;97397.41;4957167;28;20189;-68
2022/05/09 02:10:52;;;;;;;9.63;8.75;;;;;;;13.80;87.08;97401.44;4952840;28;20502;-68
2022/05/09 02:13:17;;;;;;;9.67;8.77;;;;;;;13.90;86.49;97404.28;4953055;28;20756;-68
2022/05/09 02:15:43;;;;;;;10.07;8.67;;;;;;;13.68;87.51;97395.38;4955956;28;20477;-68
2022/05/09 02:18:08;;;;;;;9.00;8.20;;;;;;;13.63;87.81;97408.44;4968639;28;20403;-68
2022/05/09 02:20:34;;;;;;;8.57;7.77;;;;;;;13.64;88.07;97402.16;4967032;28;20473;-67
2022/05/09 02:22:59;;;;;;;9.00;8.20;;;;;;;13.81;87.16;97403.06;4956541;28;20478;-68
2022/05/09 02:25:29;;;;;;;10.63;8.40;;;;;;;13.73;87.55;97408.66;4956054;28;20421;-68
2022/05/09 02:28:03;;;;;;;9.07;8.17;;;;;;;13.82;87.20;97404.63;4967145;28;20404;-68
2022/05/09 02:30:29;;;;;;;8.80;8.00;;;;;;;13.70;87.76;97406.50;4974862;28;20408;-68
2022/05/09 02:32:55;;;;;;;8.87;8.07;;;;;;;13.72;87.93;97404.44;4975396;28;20459;-68
2022/05/09 02:35:21;;;;;;;8.80;8.00;;;;;;;13.56;88.52;97403.28;4974094;28;20391;-68
2022/05/09 02:37:48;;;;;;;9.10;8.30;;;;;;;13.68;88.57;97398.81;4949634;28;20414;-68
2022/05/09 02:40:15;;;;;;;8.83;8.03;;;;;;;13.59;88.58;97405.50;4975435;28;20403;-68
2022/05/09 02:42:40;;;;;;;9.02;8.23;;;;;;;13.69;87.71;97400.44;4965948;28;20430;-68
2022/05/09 02:45:07;;;;;;;9.23;8.43;;;;;;;13.46;89.19;97405.72;4967188;28;20454;-68
2022/05/09 02:47:32;;;;;;;9.30;8.40;;;;;;;13.62;88.29;97407.66;4975263;28;20407;-68
2022/05/09 02:49:58;;;;;;;9.20;8.30;;;;;;;13.77;87.48;97407.16;4956751;28;20431;-68
2022/05/09 02:52:23;;;;;;;9.40;8.50;;;;;;;13.93;86.30;97406.44;4944337;28;20428;-69
2022/05/09 02:54:48;;;;;;;8.90;8.10;;;;;;;13.58;88.46;97403.88;4974942;28;20392;-68
2022/05/09 02:57:14;;;;;;;9.87;8.87;;;;;;;13.66;87.99;97402.72;4962931;28;20398;-70
2022/05/09 02:59:40;;;;;;;10.60;8.43;;;;;;;13.71;88.00;97403.63;4955680;28;20754;-68
2022/05/09 03:02:05;;;;;;;9.82;8.82;;;;;;;13.74;87.72;97407.66;4958864;28;20869;-68
2022/05/09 03:04:39;;;;;;;9.93;9.03;;;;;;;13.91;86.62;97405.09;4974825;28;20885;-68
2022/05/09 03:07:15;;;;;;;9.68;8.88;;;;;;;13.74;87.74;97403.19;4975223;28;20407;-68
2022/05/09 03:09:42;;;;;;;9.68;8.77;;;;;;;13.63;88.15;97398.72;4974810;28;20532;-68
2022/05/09 03:12:09;;;;;;;9.20;8.30;;;;;;;13.56;88.51;97394.59;4971190;28;20397;-68
2022/05/09 03:14:35;;;;;;;9.73;8.82;;;;;;;13.51;88.25;97394.47;4956430;28;20724;-68
2022/05/09 03:17:01;;;;;;;10.30;9.32;;;;;;;13.53;88.75;97395.06;4955838;28;20504;-68
2022/05/09 03:19:27;;;;;;;9.97;9.00;;;;;;;13.51;88.98;97397.13;4969698;28;20411;-68
2022/05/09 03:21:53;;;;;;;9.47;8.57;;;;;;;13.23;90.82;97403.88;4973126;28;20416;-68
2022/05/09 03:24:19;;;;;;;9.52;8.63;;;;;;;13.10;91.55;97396.16;4954163;28;20412;-68
2022/05/09 03:26:45;;;;;;;10.52;9.52;;;;;;;13.17;91.79;97406.59;4937917;29;20406;-69
2022/05/09 03:29:10;;;;;;;10.45;9.45;;;;;;;13.16;91.94;97399.72;4965800;28;20402;-68
2022/05/09 03:31:36;;;;;;;10.43;9.43;;;;;;;13.24;91.56;97404.66;4972564;28;20738;-68
2022/05/09 03:34:01;;;;;;;10.45;9.45;;;;;;;13.00;92.75;97398.53;4974320;28;20431;-68
2022/05/09 03:36:26;;;;;;;10.13;9.13;;;;;;;12.98;93.35;97403.25;4974071;28;20403;-68
2022/05/09 03:38:52;;;;;;;10.53;9.47;;;;;;;13.09;93.10;97409.56;4972807;28;20487;-68
2022/05/09 03:41:17;;;;;;;10.37;9.37;;;;;;;13.14;92.50;97399.97;4973941;28;20419;-68
2022/05/09 03:43:42;;;;;;;10.67;9.57;;;;;;;13.06;93.17;97402.09;4973727;28;20408;-69
2022/05/09 03:46:08;;;;;;;10.77;9.68;;;;;;;13.13;93.27;97402.84;4968670;28;20414;-68
2022/05/09 03:48:33;;;;;;;11.07;9.93;;;;;;;13.13;93.11;97403.63;4954762;28;20409;-68
2022/05/09 03:51:01;;;;;;;12.53;9.97;;;;;;;12.97;93.34;97409.53;4967724;28;20762;-68
2022/05/09 03:53:26;;;;;;;10.73;9.73;;;;;;;12.65;95.80;97408.97;4973304;28;20880;-69
2022/05/09 03:55:52;;;;;;;10.43;9.32;;;;;;;12.61;96.78;97410.44;4970636;28;20540;-68
2022/05/09 03:58:17;;;;;;;10.70;9.70;;;;;;;12.50;97.61;97403.31;4955040;28;20433;-68
2022/05/09 04:00:43;;;;;;;10.70;9.70;;;;;;;12.70;96.66;97411.75;4954828;28;20418;-68
2022/05/09 04:03:09;;;;;;;11.00;9.90;;;;;;;12.58;97.72;97408.28;4955323;28;20537;-68
2022/05/09 04:05:36;;;;;;;11.77;10.68;;;;;;;12.56;97.99;97405.06;4970294;28;20870;-68
2022/05/09 04:08:05;;;;;;;11.73;10.52;;;;;;;12.53;98.71;97412.59;4954735;28;20404;-69
2022/05/09 04:10:33;;;;;;;11.43;10.32;;;;;;;12.38;99.55;97407.72;4954474;28;20406;-68
2022/05/09 04:12:59;;;;;;;11.00;10.00;;;;;;;12.46;98.99;97415.31;4957621;28;20879;-68
2022/05/09 04:18:10;;;;;;;10.90;9.90;;;;;;;12.75;97.64;97411.06;4954616;28;20445;-68
2022/05/09 04:20:37;;;;;;;10.80;9.70;;;;;;;12.82;96.72;97420.47;4954457;28;20429;-69
2022/05/09 04:23:04;;;;;;;11.15;10.05;;;;;;;12.81;96.88;97416.25;4936865;28;20407;-69
2022/05/09 04:25:31;;;;;;;11.07;9.90;;;;;;;12.91;96.21;97413.06;4954227;28;20456;-68
2022/05/09 04:27:58;;;;;;;10.95;9.90;;;;;;;13.05;95.43;97411.81;4954296;29;20393;-68
2022/05/09 04:30:24;;;;;;;11.37;10.17;;;;;;;13.25;94.82;97411.53;4921006;29;20414;-69
2022/05/09 04:32:49;;;;;;;11.10;10.00;;;;;;;13.32;93.32;97420.13;4955233;28;20497;-68
2022/05/09 04:35:19;;;;;;;10.10;9.13;;;;;;;13.32;93.58;97410.38;4971838;28;20392;-69
2022/05/09 04:37:47;;;;;;;10.27;9.27;;;;;;;13.36;93.12;97423.13;4972467;28;20407;-69
2022/05/09 04:40:18;;;;;;;10.00;9.10;;;;;;;13.22;94.05;97422.50;4972856;28;20450;-68
2022/05/09 04:42:43;;;;;;;10.38;9.35;;;;;;;13.37;93.72;97428.16;4972899;28;20423;-68
2022/05/09 04:45:10;;;;;;;9.97;9.07;;;;;;;13.33;93.31;97433.06;4956095;28;20441;-68
2022/05/09 04:47:36;;;;;;;9.88;9.05;;;;;;;13.26;93.74;97429.72;4936789;29;20457;-69
2022/05/09 04:50:02;;;;;;;10.60;9.60;;;;;;;13.50;93.45;97424.47;4953709;28;20393;-68
2022/05/09 04:52:28;;;;;;;10.40;9.30;;;;;;;13.49;93.05;97431.56;4969890;28;20754;-68
2022/05/09 04:54:54;;;;;;;10.33;9.43;;;;;;;14.02;90.93;97434.06;4954243;28;20404;-68
2022/05/09 04:57:19;;;;;;;9.57;8.60;;;;;;;14.14;89.55;97440.13;4954096;28;20780;-68
2022/05/09 04:59:44;;;;;;;9.03;8.23;;;;;;;14.35;88.73;97435.25;4965024;28;20504;-67
2022/05/09 05:02:10;;;;;;;8.48;7.70;;;;;;;14.93;84.54;97432.41;4965338;28;20410;-68
2022/05/09 05:04:35;;;;;;;9.13;8.10;;;;;;;15.10;83.07;97438.47;4953496;28;20407;-69
2022/05/09 05:07:00;;;;;;;11.87;8.23;;;;;;;15.18;81.77;97440.72;4936516;29;20404;-68
2022/05/09 05:09:26;;;;;;;8.13;7.43;;;;;;;15.23;81.17;97440.81;4961416;28;20403;-68
2022/05/09 05:11:51;;;;;;;8.32;7.63;;;;;;;15.49;80.52;97438.59;4957467;28;20931;-67
2022/05/09 05:14:17;;;;;;;7.93;7.23;;;;;;;15.52;79.62;97444.22;4956046;28;20412;-68
2022/05/09 05:17:00;;;;;;;8.10;7.40;;;;;;;15.26;80.59;97440.34;4972462;28;20419;-70
2022/05/09 05:19:34;;;;;;;7.90;7.20;;;;;;;15.59;79.71;97436.94;4967651;28;20891;-68
2022/05/09 05:22:01;;;;;;;8.38;7.60;;;;;;;15.84;78.32;97440.94;4972500;28;20422;-68
2022/05/09 05:24:27;;;;;;;7.88;7.25;;;;;;;15.71;78.12;97440.28;4972305;28;20446;-68
2022/05/09 05:26:54;;;;;;;8.13;7.43;;;;;;;16.10;77.59;97446.34;4972082;28;20408;-68
2022/05/09 05:29:20;;;;;;;8.82;7.20;;;;;;;16.38;75.06;97442.72;4962246;28;20430;-68
2022/05/09 05:31:46;;;;;;;8.30;7.50;;;;;;;16.10;75.46;97449.00;4953644;28;20496;-68
2022/05/09 05:34:11;;;;;;;7.60;6.88;;;;;;;16.20;75.20;97451.78;4953404;28;20484;-68
2022/05/09 05:36:37;;;;;;;7.00;6.40;;;;;;;16.52;73.85;97454.53;4953242;28;20402;-68
2022/05/09 05:39:03;;;;;;;7.38;6.70;;;;;;;16.14;76.10;97460.69;4960304;28;20400;-68
2022/05/09 05:41:28;;;;;;;7.63;6.88;;;;;;;16.49;74.30;97456.88;4972589;28;20408;-68
2022/05/09 05:43:54;;;;;;;6.93;6.33;;;;;;;16.56;73.85;97450.31;4972451;28;20462;-67
2022/05/09 05:46:19;;;;;;;7.27;6.63;;;;;;;17.05;71.33;97459.06;4954927;28;20465;-67
2022/05/09 05:48:45;;;;;;;7.40;6.80;;;;;;;16.77;72.50;97459.34;4959857;28;20398;-67
2022/05/09 05:51:11;;;;;;;7.82;7.03;;;;;;;16.81;71.99;97460.44;4957129;28;20767;-68
2022/05/09 05:53:37;;;;;;;8.38;7.38;;;;;;;16.87;72.14;97464.72;4957129;28;20405;-67
2022/05/09 05:56:03;;;;;;;8.00;7.20;;;;;;;16.75;72.11;97460.63;4971278;28;20392;-68
2022/05/09 05:58:28;;;;;;;7.95;7.18;;;;;;;16.83;72.47;97468.91;4975445;28;20459;-67
2022/05/09 06:00:55;;;;;;;8.03;7.30;;;;;;;17.04;71.87;97470.72;4976048;28;20456;-67
2022/05/09 06:03:20;;;;;;;7.37;6.43;;;;;;;16.67;72.33;97471.63;4975370;28;20499;-67
2022/05/09 06:05:49;;;;;;;7.13;6.53;;;;;;;17.39;70.07;97470.22;4963676;28;20894;-69
2022/05/09 06:08:15;;;;;;;7.88;7.15;;;;;;;17.42;68.50;97471.56;4963895;28;20486;-67
2022/05/09 06:10:40;;;;;;;7.70;6.90;;;;;;;16.68;71.60;97470.59;4976156;28;20488;-67
2022/05/09 06:13:06;;;;;;;7.57;6.55;;;;;;;16.91;71.18;97470.31;4962857;28;20390;-68
2022/05/09 06:15:33;;;;;;;6.97;6.27;;;;;;;17.66;68.91;97475.50;4957114;28;20418;-67
2022/05/09 06:18:04;;;;;;;8.15;7.15;;;;;;;17.82;67.08;97474.56;4957786;28;20405;-69
2022/05/09 06:20:34;;;;;;;8.45;6.88;;;;;;;16.90;70.20;97474.00;4956530;28;20480;-67
2022/05/09 06:23:00;;;;;;;8.73;7.73;;;;;;;17.72;68.01;97476.34;4964803;28;20395;-67
2022/05/09 06:25:28;;;;;;;8.35;7.63;;;;;;;17.79;67.41;97477.72;4959372;28;20400;-67
2022/05/09 06:27:54;;;;;;;8.23;7.40;;;;;;;17.09;69.96;97480.56;4976181;28;20268;-68
2022/05/09 06:30:22;;;;;;;10.57;7.50;;;;;;;17.33;69.17;97483.69;4967946;28;20182;-66
2022/05/09 06:32:48;;;;;;;8.55;7.63;;;;;;;17.41;68.73;97486.69;4963692;28;20200;-67
2022/05/09 06:35:20;;;;;;;9.13;7.63;;;;;;;17.67;68.12;97485.03;4976077;28;20607;-67
2022/05/09 06:37:49;;;;;;;8.98;7.80;;;;;;;17.66;67.85;97486.13;4976211;28;20212;-67
2022/05/09 06:40:15;;;;;;;8.50;7.65;;;;;;;17.61;67.44;97483.41;4969422;28;20615;-67
2022/05/09 06:42:40;;;;;;;11.93;6.93;;;;;;;17.83;67.20;97489.41;4957477;28;20289;-66
2022/05/09 06:45:07;;;;;;;12.70;7.73;;;;;;;17.61;68.00;97488.72;4965011;28;20185;-67
2022/05/09 06:47:33;;;;;;;8.18;6.97;;;;;;;17.82;67.18;97481.72;4963102;28;20233;-67
2022/05/09 06:50:03;;;;;;;8.98;7.30;;;;;;;17.86;65.67;97485.44;4961481;28;20204;-67
2022/05/09 06:52:29;;;;;;;9.00;7.57;;;;;;;17.47;67.49;97490.16;4975515;28;20196;-67
2022/05/09 06:54:54;;;;;;;8.63;7.43;;;;;;;17.62;66.40;97492.16;4976205;28;20195;-67
2022/05/09 06:57:21;;;;;;;8.23;7.35;;;;;;;16.60;70.75;97491.19;4976259;28;20196;-67
2022/05/09 06:59:47;;;;;;;7.40;6.65;;;;;;;16.84;70.01;97491.69;4975160;28;20181;-67
2022/05/09 07:02:13;;;;;;;7.90;7.18;;;;;;;17.03;69.42;97486.88;4960843;28;20201;-68
2022/05/09 07:04:39;;;;;;;8.48;7.57;;;;;;;17.16;69.06;97494.41;4956987;28;20181;-67
2022/05/09 07:07:05;;;;;;;9.00;7.47;;;;;;;17.44;67.81;97488.81;4966311;28;20267;-67
2022/05/09 07:09:30;;;;;;;7.63;6.95;;;;;;;17.42;68.20;97487.47;4961227;28;20604;-68
2022/05/09 07:11:56;;;;;;;9.02;7.07;;;;;;;17.60;67.98;97495.09;4974415;28;20653;-69
2022/05/09 07:14:22;;;;;;;9.95;7.13;;;;;;;17.92;66.82;97484.44;4958300;28;20181;-69
2022/05/09 07:16:47;;;;;;;11.65;8.10;;;;;;;17.60;66.53;97495.09;4969574;28;20181;-69
2022/05/09 07:19:14;;;;;;;8.27;7.30;;;;;;;17.38;67.95;97495.16;4958528;28;20193;-69
2022/05/09 07:21:39;;;;;;;8.98;8.07;;;;;;;17.73;66.75;97491.97;4957236;28;20227;-67
2022/05/09 07:24:06;;;;;;;11.10;7.57;;;;;;;17.78;67.03;97489.38;4961441;28;20188;-69
2022/05/09 07:26:32;;;;;;;8.85;7.38;;;;;;;18.12;66.43;97491.69;4957797;28;20592;-68
2022/05/09 07:28:58;;;;;;;8.35;7.47;;;;;;;18.20;67.01;97496.53;4968338;28;20193;-72
2022/05/09 07:31:23;;;;;;;10.15;7.80;;;;;;;18.93;64.23;97492.06;4957955;28;20196;-69
2022/05/09 07:33:49;;;;;;;8.15;7.22;;;;;;;19.16;61.87;97493.44;4967747;28;20192;-69
2022/05/09 07:36:14;;;;;;;7.30;6.60;;;;;;;19.39;61.52;97495.59;4965991;28;20315;-70
2022/05/09 07:38:40;;;;;;;8.60;6.82;;;;;;;18.86;63.40;97494.97;4961561;28;20272;-70
2022/05/09 07:41:05;;;;;;;7.90;7.20;;;;;;;18.23;64.98;97496.00;4956378;28;20201;-70
2022/05/09 07:43:31;;;;;;;8.32;7.05;;;;;;;18.48;64.84;97498.78;4961405;28;20301;-71
2022/05/09 07:45:56;;;;;;;8.05;6.80;;;;;;;18.70;63.91;97501.28;4955746;28;20208;-74
2022/05/09 07:48:24;;;;;;;8.40;7.53;;;;;;;18.36;64.89;97497.41;4955980;28;20200;-71
2022/05/09 07:50:50;;;;;;;9.65;8.55;;;;;;;18.18;64.56;97501.28;4957000;28;20240;-70
2022/05/09 07:53:22;;;;;;;10.10;7.15;;;;;;;18.35;64.13;97495.78;4955717;28;20189;-69
2022/05/09 07:55:48;;;;;;;10.55;6.82;;;;;;;18.18;64.16;97496.78;4972622;28;20634;-70
2022/05/09 07:58:13;;;;;;;9.65;7.90;;;;;;;18.13;64.71;97498.59;4956919;28;20197;-72
2022/05/09 08:00:41;;;;;;;8.15;7.40;;;;;;;18.25;64.60;97496.56;4955689;28;20185;-70
2022/05/09 08:03:14;;;;;;;11.32;8.13;;;;;;;18.78;63.62;97494.69;4961726;28;20223;-71
2022/05/09 08:05:39;;;;;;;9.65;7.30;;;;;;;18.71;63.94;97494.94;4948590;28;20178;-71
2022/05/09 08:08:05;;;;;;;8.07;7.25;;;;;;;19.10;63.01;97495.28;4966840;28;20192;-71
2022/05/09 08:10:30;;;;;;;8.82;7.93;;;;;;;18.91;62.87;97494.16;4970806;28;20231;-71
2022/05/09 08:12:58;;;;;;;9.13;8.18;;;;;;;18.66;63.56;97497.56;4968547;28;20221;-70
2022/05/09 08:15:25;;;;;;;10.35;7.30;;;;;;;18.90;63.30;97495.22;4967399;28;20231;-69
2022/05/09 08:17:52;;;;;;;9.77;7.90;;;;;;;18.71;64.17;97504.75;4970325;28;20189;-71
2022/05/09 08:20:17;;;;;;;8.27;7.35;;;;;;;18.61;64.42;97511.59;4975302;28;20212;-72
2022/05/09 08:22:45;;;;;;;12.65;7.53;;;;;;;18.67;63.74;97501.78;4963470;28;20262;-71
2022/05/09 08:25:13;;;;;;;8.25;7.38;;;;;;;18.79;63.92;97497.06;4973938;28;20199;-70
2022/05/09 08:27:38;;;;;;;8.77;7.45;;;;;;;19.13;62.87;97499.25;4964370;28;20277;-70
2022/05/09 08:30:04;;;;;;;7.53;6.88;;;;;;;18.94;63.10;97509.59;4972596;28;20275;-70
2022/05/09 08:32:30;;;;;;;8.15;6.63;;;;;;;19.14;62.80;97500.88;4973345;28;20287;-70
2022/05/09 08:34:56;;;;;;;8.75;6.53;;;;;;;19.17;62.22;97489.72;4963550;28;20196;-70
2022/05/09 08:37:22;;;;;;;6.63;5.93;;;;;;;19.11;62.79;97497.66;4964214;28;20189;-70
2022/05/09 08:39:48;;;;;;;8.60;6.80;;;;;;;19.23;62.90;97493.97;4973761;28;20243;-70
2022/05/09 08:42:48;;;;;;;9.55;6.57;;;;;;;19.24;62.02;97499.00;4957934;28;20208;-70
2022/05/09 08:45:33;;;;;;;7.35;6.18;;;;;;;19.56;60.95;97496.13;4969661;28;20296;-70
2022/05/09 08:48:23;;;;;;;7.13;6.40;;;;;;;19.34;60.95;97495.56;4959517;28;20189;-70
2022/05/09 08:51:14;;;;;;;9.70;6.75;;;;;;;19.35;61.75;97497.16;4959345;28;20214;-70
2022/05/09 08:53:42;;;;;;;6.95;6.22;;;;;;;19.34;61.49;97501.69;4971421;28;20216;-69
2022/05/09 08:56:13;;;;;;;9.40;6.13;;;;;;;19.52;61.54;97497.75;4974001;28;20523;-70
2022/05/09 08:58:56;;;;;;;7.30;6.57;;;;;;;20.13;59.30;97509.13;4967554;28;20256;-70
2022/05/09 09:01:24;;;;;;;7.70;6.38;;;;;;;20.00;58.86;97506.22;4972449;28;20231;-71
2022/05/09 09:03:56;;;;;;;9.65;6.45;;;;;;;19.83;59.81;97503.84;4973717;28;20223;-70
2022/05/09 09:06:36;;;;;;;7.80;6.35;;;;;;;19.52;60.35;97500.41;4970372;28;20177;-70
2022/05/09 09:09:14;;;;;;;7.03;6.25;;;;;;;19.48;61.24;97507.31;4966801;28;20184;-70
2022/05/09 09:12:05;;;;;;;6.60;6.07;;;;;;;19.51;58.96;97504.91;4966120;28;20283;-70
2022/05/09 09:15:13;;;;;;;6.60;6.00;;;;;;;19.43;60.26;97515.25;4964868;28;20543;-70
2022/05/09 09:17:56;;;;;;;6.45;5.85;;;;;;;19.49;60.78;97503.59;4944018;28;20637;-69
2022/05/09 09:20:59;;;;;;;10.25;6.50;;;;;;;19.51;60.91;97504.91;4962660;28;20185;-70
2022/05/09 09:23:30;;;;;;;7.82;6.18;;;;;;;19.39;62.21;97509.66;4956903;28;20192;-70
2022/05/09 09:26:04;;;;;;;7.28;6.65;;;;;;;19.67;61.00;97511.03;4948753;29;20232;-70
2022/05/09 09:29:05;;;;;;;6.90;6.20;;;;;;;19.65;61.19;97507.84;4971919;28;20275;-70
2022/05/09 09:31:39;;;;;;;7.55;6.85;;;;;;;19.74;60.33;97511.56;4948031;28;20848;-71
2022/05/09 09:34:37;;;;;;;10.38;6.20;;;;;;;19.72;59.56;97511.06;4978204;28;20195;-73
2022/05/09 09:37:22;;;;;;;7.43;6.63;;;;;;;19.81;59.30;97514.75;4974183;28;20207;-72
2022/05/09 09:39:47;;;;;;;8.77;6.60;;;;;;;19.62;59.21;97505.72;4979274;28;20291;-71
2022/05/09 09:42:13;;;;;;;7.05;6.35;;;;;;;19.93;59.44;97503.84;4968468;28;20217;-70
2022/05/09 09:44:43;;;;;;;7.97;6.57;;;;;;;19.79;59.29;97506.25;4966915;28;20243;-71
2022/05/09 09:47:28;;;;;;;8.57;6.15;;;;;;;19.65;59.44;97502.53;4980091;28;20192;-70
2022/05/09 09:50:25;;;;;;;6.30;5.70;;;;;;;19.81;59.84;97504.13;4969201;28;20203;-71
2022/05/09 09:52:54;;;;;;;7.25;5.70;;;;;;;19.74;60.24;97503.59;4978642;28;20204;-71
2022/05/09 09:55:23;;;;;;;7.15;6.45;;;;;;;19.75;59.91;97502.53;4964823;28;20189;-71
2022/05/09 09:57:49;;;;;;;8.00;6.50;;;;;;;19.59;59.49;97503.59;4960386;28;20663;-71
2022/05/09 10:00:17;;;;;;;7.05;5.75;;;;;;;19.74;60.05;97498.25;4960954;28;20200;-70
2022/05/09 10:02:43;;;;;;;7.28;5.55;;;;;;;19.47;60.14;97497.75;4960788;28;20212;-70
2022/05/09 10:05:15;;;;;;;6.57;5.60;;;;;;;19.61;60.40;97495.34;4967825;28;20197;-70
2022/05/09 10:07:44;;;;;;;6.22;5.63;;;;;;;19.60;59.71;97501.75;4970053;28;20283;-70
2022/05/09 10:10:14;;;;;;;6.78;6.18;;;;;;;19.34;60.09;97491.03;4977177;28;20188;-70
2022/05/09 10:12:44;;;;;;;6.68;6.03;;;;;;;19.97;59.05;97493.44;4966307;28;20189;-71
2022/05/09 10:15:21;;;;;;;5.88;5.32;;;;;;;20.06;58.10;97491.84;4971855;28;20221;-70
2022/05/09 10:17:46;;;;;;;6.00;5.50;;;;;;;20.97;56.78;97486.97;4970907;28;20192;-70
2022/05/09 10:20:27;;;;;;;6.40;5.78;;;;;;;20.58;56.69;97483.44;4963025;28;20186;-70
2022/05/09 10:26:22;;;;;;;5.60;5.00;;;;;;;21.05;53.56;97472.28;4970288;28;20266;-70
2022/05/09 10:28:54;;;;;;;5.13;4.70;;;;;;;21.33;52.97;97471.56;4966628;28;20275;-71
2022/05/09 10:31:36;;;;;;;5.32;4.80;;;;;;;21.46;52.92;97476.25;4962341;28;20181;-69
2022/05/09 10:34:12;;;;;;;8.88;4.47;;;;;;;21.24;53.44;97475.09;4969294;28;20173;-70
2022/05/09 10:36:56;;;;;;;5.43;4.90;;;;;;;20.79;53.46;97476.94;4957082;28;20180;-72
2022/05/09 10:39:33;;;;;;;5.70;4.80;;;;;;;20.98;53.00;97471.78;4971514;28;20238;-71
2022/05/09 10:42:04;;;;;;;6.13;5.00;;;;;;;21.35;53.24;97465.94;4970934;28;20204;-73
2022/05/09 10:44:35;;;;;;;4.93;4.45;;;;;;;21.11;53.64;97463.97;4967391;28;20277;-73
2022/05/09 10:47:15;;;;;;;5.32;4.80;;;;;;;21.61;51.74;97459.34;4957127;28;20189;-72
2022/05/09 10:49:52;;;;;;;5.10;4.70;;;;;;;21.93;50.94;97459.56;4973006;28;20267;-72
2022/05/09 10:52:43;;;;;;;4.75;4.35;;;;;;;21.78;50.38;97454.38;4959517;28;20178;-71
2022/05/09 10:55:13;;;;;;;5.18;4.60;;;;;;;22.10;49.47;97451.13;4953277;28;20197;-71
2022/05/09 10:57:49;;;;;;;4.55;4.25;;;;;;;22.54;49.46;97456.22;4971972;28;20192;-72
2022/05/09 11:00:25;;;;;;;5.53;4.93;;;;;;;22.24;49.62;97459.25;4961199;28;20217;-72
2022/05/09 11:03:05;;;;;;;5.63;4.85;;;;;;;22.07;49.12;97442.91;4956617;28;20197;-71
2022/05/09 11:05:44;;;;;;;5.45;4.95;;;;;;;22.05;49.08;97445.84;4956608;28;20244;-72
2022/05/09 11:08:28;;;;;;;6.45;4.78;;;;;;;22.18;49.10;97444.38;4970170;28;20184;-72
2022/05/09 11:11:18;;;;;;;8.77;4.13;;;;;;;22.14;48.20;97452.16;4973903;28;20650;-73
2022/05/09 11:13:50;;;;;;;5.35;3.78;;;;;;;22.55;47.14;97432.97;4961054;28;20276;-71
2022/05/09 11:16:45;;;;;;;4.60;4.20;;;;;;;22.42;48.17;97437.13;4965472;28;20332;-71
2022/05/09 11:19:32;;;;;;;5.40;4.43;;;;;;;22.49;48.69;97437.59;4965549;28;20621;-71
2022/05/09 11:22:15;;;;;;;4.45;4.05;;;;;;;22.97;46.77;97435.59;4969123;28;20197;-71
2022/05/09 11:24:43;;;;;;;4.35;4.00;;;;;;;23.17;47.12;97439.88;4964541;28;20666;-71
2022/05/09 11:27:18;;;;;;;6.13;4.30;;;;;;;22.94;46.33;97433.53;4956274;28;20213;-71
2022/05/09 11:30:02;;;;;;;5.38;4.35;;;;;;;22.31;48.37;97443.69;4956824;28;20255;-71
2022/05/09 11:32:37;;;;;;;4.72;4.25;;;;;;;22.63;45.81;97429.63;4956882;28;20184;-72
2022/05/09 11:35:31;;;;;;;6.07;4.05;;;;;;;22.67;46.39;97428.00;4964675;28;20192;-72
2022/05/09 11:38:18;;;;;;;4.45;4.05;;;;;;;22.57;46.60;97431.56;4974952;28;20177;-72
2022/05/09 11:41:17;;;;;;;4.38;3.97;;;;;;;22.90;45.47;97423.69;4957091;28;20169;-72
2022/05/09 11:44:01;;;;;;;5.18;4.68;;;;;;;22.30;46.64;97434.88;4965365;28;20192;-72
2022/05/09 11:46:54;;;;;;;4.70;4.30;;;;;;;22.65;45.99;97416.78;4954548;28;20277;-72
2022/05/09 11:49:47;;;;;;;4.57;4.10;;;;;;;22.68;46.74;97416.22;4962985;28;20190;-72
2022/05/09 11:52:34;;;;;;;4.90;4.30;;;;;;;22.33;46.47;97414.81;4968963;28;20193;-72
2022/05/09 11:55:11;;;;;;;4.90;4.28;;;;;;;22.38;45.84;97414.75;4973914;28;20212;-73